Time;durP1;ratioP1;P1;durP2;ratioP2;P2;SDS_P1;SDS_P2;PMS_P1;PMS_P2;Temp;Humidity;BMP_temperature;BMP_pressure;BME280_temperature;BME280_humidity;BME280_pressure;Samples;Min_cycle;Max_cycle;Signal;HPM_P1;HPM_P2
2021/08/21 00:01:06;;;;;;;143.02;137.80;;;;;;;;;;4953462;29;20490;-80
2021/08/21 00:03:31;;;;;;;135.45;130.55;;;;;;;;;;4952706;28;20129;-80
2021/08/21 00:05:57;;;;;;;199.98;192.95;;;;;;;;;;4953099;28;20056;-80
2021/08/21 00:08:22;;;;;;;207.55;200.27;;;;;;;;;;4950521;28;20062;-79
2021/08/21 00:10:48;;;;;;;247.55;238.65;;;;;;;;;;4956318;28;20031;-78
2021/08/21 00:13:13;;;;;;;157.55;151.70;;;;;;;;;;4937047;29;20126;-78
2021/08/21 00:15:39;;;;;;;222.38;214.73;;;;;;;;;;4953454;28;20035;-78
2021/08/21 00:18:04;;;;;;;226.45;218.60;;;;;;;;;;4936686;29;20038;-78
2021/08/21 00:20:30;;;;;;;252.18;243.07;;;;;;;;;;4949478;28;20031;-78
2021/08/21 00:22:55;;;;;;;218.88;210.98;;;;;;;;;;4966004;28;20118;-78
2021/08/21 00:25:21;;;;;;;174.02;167.93;;;;;;;;;;4952529;29;20040;-78
2021/08/21 00:27:46;;;;;;;206.93;199.48;;;;;;;;;;4936610;28;20039;-78
2021/08/21 00:30:12;;;;;;;217.65;210.00;;;;;;;;;;4952969;28;20035;-78
2021/08/21 00:32:37;;;;;;;240.55;231.68;;;;;;;;;;4933705;28;20040;-78
2021/08/21 00:35:04;;;;;;;199.60;192.52;;;;;;;;;;4920528;29;20460;-78
2021/08/21 00:37:29;;;;;;;160.18;154.02;;;;;;;;;;4969149;28;20043;-78
2021/08/21 00:39:55;;;;;;;149.98;144.32;;;;;;;;;;4967672;28;20060;-78
2021/08/21 00:42:20;;;;;;;116.25;112.03;;;;;;;;;;4968302;28;20039;-79
2021/08/21 00:44:46;;;;;;;163.70;157.80;;;;;;;;;;4920999;29;20054;-78
2021/08/21 00:47:16;;;;;;;167.00;161.07;;;;;;;;;;4950422;28;20097;-78
2021/08/21 00:49:43;;;;;;;179.45;172.77;;;;;;;;;;4939218;29;20046;-78
2021/08/21 00:52:14;;;;;;;233.07;224.75;;;;;;;;;;4936874;29;20120;-78
2021/08/21 00:54:39;;;;;;;172.50;166.18;;;;;;;;;;4952672;28;20039;-79
2021/08/21 00:57:06;;;;;;;169.82;163.68;;;;;;;;;;4951788;28;20039;-78
2021/08/21 00:59:34;;;;;;;166.88;160.77;;;;;;;;;;4952594;28;20454;-78
2021/08/21 01:02:00;;;;;;;236.25;227.65;;;;;;;;;;4952637;29;20034;-78
2021/08/21 01:04:26;;;;;;;253.00;244.00;;;;;;;;;;4936807;28;20371;-79
2021/08/21 01:06:51;;;;;;;246.25;237.38;;;;;;;;;;4936842;29;20031;-78
2021/08/21 01:09:17;;;;;;;256.38;247.32;;;;;;;;;;4948330;28;20070;-78
2021/08/21 01:11:42;;;;;;;206.20;198.98;;;;;;;;;;4948422;28;20059;-78
2021/08/21 01:14:08;;;;;;;225.40;217.40;;;;;;;;;;4949059;28;20036;-78
2021/08/21 01:16:33;;;;;;;225.40;217.57;;;;;;;;;;4933111;29;20036;-78
2021/08/21 01:18:59;;;;;;;266.63;256.98;;;;;;;;;;4933137;29;20035;-78
2021/08/21 01:21:24;;;;;;;256.27;247.27;;;;;;;;;;4948827;28;20036;-79
2021/08/21 01:23:51;;;;;;;220.27;212.35;;;;;;;;;;4917347;29;20039;-78
2021/08/21 01:26:16;;;;;;;239.57;231.13;;;;;;;;;;4949187;28;20502;-79
2021/08/21 01:28:42;;;;;;;216.85;209.07;;;;;;;;;;4948547;28;20062;-78
2021/08/21 01:31:07;;;;;;;276.33;266.48;;;;;;;;;;4948390;28;20126;-78
2021/08/21 01:33:34;;;;;;;224.80;216.55;;;;;;;;;;4949437;28;20044;-78
2021/08/21 01:35:59;;;;;;;242.50;234.05;;;;;;;;;;4949112;28;20074;-78
2021/08/21 01:38:25;;;;;;;183.68;177.15;;;;;;;;;;4948967;28;20031;-78
2021/08/21 01:40:51;;;;;;;235.15;226.90;;;;;;;;;;4949195;29;20047;-78
2021/08/21 01:43:18;;;;;;;218.45;210.38;;;;;;;;;;4946162;29;20035;-78
2021/08/21 01:45:44;;;;;;;238.63;230.38;;;;;;;;;;4952131;28;20061;-79
2021/08/21 01:48:11;;;;;;;231.15;222.77;;;;;;;;;;4920409;29;20043;-78
2021/08/21 01:50:37;;;;;;;257.38;248.25;;;;;;;;;;4936235;29;20046;-79
2021/08/21 01:53:03;;;;;;;195.77;188.82;;;;;;;;;;4951963;28;20114;-78
2021/08/21 01:55:31;;;;;;;210.52;203.07;;;;;;;;;;4951736;28;20039;-78
2021/08/21 01:57:59;;;;;;;195.55;188.77;;;;;;;;;;4936581;29;20048;-78
2021/08/21 02:00:27;;;;;;;219.27;211.50;;;;;;;;;;4952129;29;20039;-79
2021/08/21 02:02:54;;;;;;;247.85;239.18;;;;;;;;;;4952589;28;20101;-79
2021/08/21 02:05:20;;;;;;;244.05;235.35;;;;;;;;;;4951978;28;20035;-78
2021/08/21 02:07:45;;;;;;;250.57;241.57;;;;;;;;;;4948514;28;20043;-78
2021/08/21 02:10:11;;;;;;;262.65;253.43;;;;;;;;;;4933017;29;20032;-78
2021/08/21 02:12:36;;;;;;;287.80;277.27;;;;;;;;;;4900923;29;20178;-79
2021/08/21 02:15:13;;;;;;;256.65;247.45;;;;;;;;;;4917159;29;20146;-79
2021/08/21 02:17:39;;;;;;;263.10;253.80;;;;;;;;;;4917158;29;20035;-78
2021/08/21 02:20:11;;;;;;;208.68;201.27;;;;;;;;;;4902182;29;20039;-78
2021/08/21 02:22:37;;;;;;;164.02;158.32;;;;;;;;;;4936759;29;20047;-79
2021/08/21 02:25:03;;;;;;;193.32;186.35;;;;;;;;;;4936348;29;20155;-78
2021/08/21 02:27:36;;;;;;;190.93;184.20;;;;;;;;;;4951561;28;20035;-78
2021/08/21 02:30:02;;;;;;;251.85;242.88;;;;;;;;;;4966547;28;20055;-79
2021/08/21 02:32:27;;;;;;;214.82;207.13;;;;;;;;;;4952583;28;20501;-79
2021/08/21 02:34:53;;;;;;;217.85;210.18;;;;;;;;;;4959190;28;20129;-78
2021/08/21 02:37:19;;;;;;;205.40;198.02;;;;;;;;;;4954766;28;20035;-78
2021/08/21 02:39:45;;;;;;;218.63;210.73;;;;;;;;;;4939121;29;20114;-79
2021/08/21 02:42:10;;;;;;;232.10;224.00;;;;;;;;;;4938731;28;20458;-78
2021/08/21 02:44:36;;;;;;;242.02;233.48;;;;;;;;;;4938806;29;20040;-78
2021/08/21 02:47:01;;;;;;;256.80;247.50;;;;;;;;;;4936144;29;20047;-78
2021/08/21 02:49:26;;;;;;;224.70;216.63;;;;;;;;;;4936494;28;20042;-78
2021/08/21 02:51:52;;;;;;;273.58;263.67;;;;;;;;;;4954963;28;20043;-78
2021/08/21 02:54:17;;;;;;;223.57;215.68;;;;;;;;;;4954499;28;20038;-78
2021/08/21 02:56:43;;;;;;;167.95;161.73;;;;;;;;;;4938104;29;20098;-78
2021/08/21 02:59:08;;;;;;;232.63;224.32;;;;;;;;;;4954652;28;20066;-78
2021/08/21 03:01:34;;;;;;;250.80;242.15;;;;;;;;;;4954900;28;20113;-78
2021/08/21 03:03:59;;;;;;;219.75;211.80;;;;;;;;;;4951454;28;20122;-78
2021/08/21 03:06:25;;;;;;;209.30;202.05;;;;;;;;;;4950960;28;20036;-78
2021/08/21 03:08:50;;;;;;;243.68;235.15;;;;;;;;;;4950926;28;20039;-79
2021/08/21 03:11:16;;;;;;;252.82;243.85;;;;;;;;;;4938139;29;20066;-78
2021/08/21 03:13:41;;;;;;;232.65;224.30;;;;;;;;;;4954306;28;20042;-79
2021/08/21 03:16:07;;;;;;;224.52;216.65;;;;;;;;;;4949951;28;20040;-78
2021/08/21 03:18:32;;;;;;;257.63;248.50;;;;;;;;;;4938521;28;20039;-78
2021/08/21 03:20:58;;;;;;;220.07;212.52;;;;;;;;;;4954181;29;20109;-78
2021/08/21 03:23:23;;;;;;;154.93;149.50;;;;;;;;;;4954167;28;20109;-79
2021/08/21 03:25:49;;;;;;;234.32;226.05;;;;;;;;;;4953469;29;20039;-78
2021/08/21 03:28:14;;;;;;;240.68;231.80;;;;;;;;;;4954003;28;20105;-78
2021/08/21 03:30:40;;;;;;;230.15;222.15;;;;;;;;;;4938360;29;20042;-78
2021/08/21 03:33:07;;;;;;;197.85;190.82;;;;;;;;;;4953254;28;20035;-78
2021/08/21 03:35:32;;;;;;;222.52;214.63;;;;;;;;;;4954248;28;20051;-78
2021/08/21 03:37:58;;;;;;;184.43;177.80;;;;;;;;;;4937900;28;20035;-78
2021/08/21 03:40:23;;;;;;;259.75;250.55;;;;;;;;;;4937917;29;20043;-79
2021/08/21 03:42:50;;;;;;;222.05;214.35;;;;;;;;;;4954207;28;20066;-78
2021/08/21 03:45:15;;;;;;;248.27;239.60;;;;;;;;;;4953527;28;20162;-78
2021/08/21 03:47:42;;;;;;;220.02;212.30;;;;;;;;;;4946608;28;20118;-78
2021/08/21 03:50:08;;;;;;;236.23;228.00;;;;;;;;;;4934740;29;20129;-79
2021/08/21 03:52:33;;;;;;;200.35;193.15;;;;;;;;;;4952636;28;20039;-78
2021/08/21 03:54:59;;;;;;;261.70;252.40;;;;;;;;;;4921543;29;20038;-78
2021/08/21 03:57:24;;;;;;;241.50;232.75;;;;;;;;;;4949654;28;20040;-78
2021/08/21 03:59:50;;;;;;;237.30;228.93;;;;;;;;;;4965137;28;20414;-79
2021/08/21 04:02:15;;;;;;;207.10;199.73;;;;;;;;;;4918598;29;20031;-78
2021/08/21 04:04:41;;;;;;;218.60;210.88;;;;;;;;;;4950326;28;20039;-79
2021/08/21 04:07:06;;;;;;;214.90;207.18;;;;;;;;;;4948409;28;20123;-79
2021/08/21 04:09:32;;;;;;;231.43;223.15;;;;;;;;;;4949622;28;20107;-79
2021/08/21 04:11:57;;;;;;;264.55;255.02;;;;;;;;;;4949794;29;20062;-79
2021/08/21 04:14:22;;;;;;;199.30;192.32;;;;;;;;;;4950216;29;20458;-79
2021/08/21 04:16:48;;;;;;;251.05;242.20;;;;;;;;;;4934052;28;20047;-79
2021/08/21 04:19:14;;;;;;;188.82;182.35;;;;;;;;;;4934066;29;20479;-79
2021/08/21 04:21:40;;;;;;;183.63;177.35;;;;;;;;;;4918089;29;20032;-79
2021/08/21 04:24:06;;;;;;;194.77;187.70;;;;;;;;;;4933767;29;20036;-79
2021/08/21 04:26:31;;;;;;;255.32;246.07;;;;;;;;;;4933785;29;20043;-79
2021/08/21 04:28:57;;;;;;;257.67;248.38;;;;;;;;;;4933892;29;20046;-79
2021/08/21 04:31:22;;;;;;;233.10;224.70;;;;;;;;;;4933894;29;20048;-79
2021/08/21 04:33:47;;;;;;;248.02;239.18;;;;;;;;;;4949919;29;20067;-79
2021/08/21 04:36:13;;;;;;;252.50;243.48;;;;;;;;;;4934090;28;20066;-79
2021/08/21 04:38:38;;;;;;;233.65;225.27;;;;;;;;;;4933399;29;20382;-79
2021/08/21 04:41:04;;;;;;;246.75;238.02;;;;;;;;;;4933915;29;20024;-79
2021/08/21 04:43:29;;;;;;;186.73;180.30;;;;;;;;;;4948513;28;20051;-79
2021/08/21 04:45:55;;;;;;;226.30;218.15;;;;;;;;;;4952920;28;20043;-79
2021/08/21 04:48:20;;;;;;;197.52;190.48;;;;;;;;;;4926817;28;20517;-80
2021/08/21 04:50:46;;;;;;;253.52;244.57;;;;;;;;;;4952447;28;20032;-80
2021/08/21 04:53:11;;;;;;;220.32;212.48;;;;;;;;;;4936055;29;20040;-79
2021/08/21 04:55:37;;;;;;;213.23;205.57;;;;;;;;;;4952375;28;20043;-80
2021/08/21 04:58:02;;;;;;;169.13;163.15;;;;;;;;;;4952090;28;20058;-79
2021/08/21 05:00:31;;;;;;;186.75;180.13;;;;;;;;;;4952542;28;20090;-79
2021/08/21 05:02:57;;;;;;;194.27;187.43;;;;;;;;;;4952782;28;20035;-80
2021/08/21 05:05:25;;;;;;;218.38;210.52;;;;;;;;;;4951778;28;20035;-80
2021/08/21 05:07:50;;;;;;;221.55;213.77;;;;;;;;;;4949104;28;20044;-79
2021/08/21 05:10:15;;;;;;;181.82;175.35;;;;;;;;;;4956550;28;20050;-79
2021/08/21 05:12:41;;;;;;;216.45;208.48;;;;;;;;;;4936444;29;20064;-80
2021/08/21 05:15:07;;;;;;;225.60;217.65;;;;;;;;;;4952199;28;20120;-79
2021/08/21 05:17:35;;;;;;;169.38;163.48;;;;;;;;;;4952477;28;20059;-78
2021/08/21 05:23:06;;;;;;;190.55;183.75;;;;;;;;;;4949273;28;20047;-79
2021/08/21 05:25:32;;;;;;;194.95;188.23;;;;;;;;;;4935083;28;20031;-79
2021/08/21 05:27:58;;;;;;;109.60;105.72;;;;;;;;;;4932586;29;20055;-80
2021/08/21 05:30:27;;;;;;;187.85;181.35;;;;;;;;;;4948947;28;20035;-79
2021/08/21 05:32:54;;;;;;;213.02;205.45;;;;;;;;;;4948981;28;20027;-79
2021/08/21 05:35:19;;;;;;;206.88;199.45;;;;;;;;;;4940514;28;20039;-79
2021/08/21 05:37:45;;;;;;;200.43;193.32;;;;;;;;;;4951775;28;20517;-80
2021/08/21 05:40:10;;;;;;;183.65;177.15;;;;;;;;;;4948803;29;20040;-79
2021/08/21 05:42:36;;;;;;;161.90;156.18;;;;;;;;;;4952122;28;20054;-79
2021/08/21 05:45:04;;;;;;;151.63;146.45;;;;;;;;;;4949660;28;20040;-79
2021/08/21 05:47:29;;;;;;;129.70;125.15;;;;;;;;;;4947759;29;20027;-80
2021/08/21 05:50:00;;;;;;;126.22;121.80;;;;;;;;;;4935139;29;20399;-79
2021/08/21 05:52:26;;;;;;;156.63;151.07;;;;;;;;;;4952697;28;20031;-79
2021/08/21 05:54:51;;;;;;;190.68;183.82;;;;;;;;;;4952489;28;20045;-79
2021/08/21 05:57:17;;;;;;;110.20;106.28;;;;;;;;;;4939452;29;20401;-79
2021/08/21 05:59:42;;;;;;;138.00;133.15;;;;;;;;;;4939432;29;20069;-79
2021/08/21 06:02:07;;;;;;;132.43;127.70;;;;;;;;;;4956025;28;20118;-79
2021/08/21 06:04:33;;;;;;;184.43;177.82;;;;;;;;;;4939681;29;20043;-79
2021/08/21 06:06:58;;;;;;;155.05;149.60;;;;;;;;;;4954534;28;20035;-80
2021/08/21 06:09:25;;;;;;;124.78;120.32;;;;;;;;;;4950918;28;20066;-81
2021/08/21 06:11:50;;;;;;;147.68;142.48;;;;;;;;;;4950086;28;20047;-80
2021/08/21 06:14:16;;;;;;;128.70;124.03;;;;;;;;;;4936621;29;20059;-81
2021/08/21 06:16:41;;;;;;;149.68;144.45;;;;;;;;;;4928541;28;20038;-80
2021/08/21 06:19:07;;;;;;;177.50;171.02;;;;;;;;;;4955380;28;20054;-80
2021/08/21 06:21:32;;;;;;;146.10;140.68;;;;;;;;;;4942742;28;20051;-80
2021/08/21 06:23:58;;;;;;;198.45;191.30;;;;;;;;;;4936138;29;20105;-80
2021/08/21 06:26:23;;;;;;;174.38;167.88;;;;;;;;;;4920217;29;20070;-81
2021/08/21 06:28:49;;;;;;;158.38;152.43;;;;;;;;;;4920123;29;20516;-80
2021/08/21 06:31:15;;;;;;;101.60;97.85;;;;;;;;;;4920264;29;20123;-80
2021/08/21 06:33:40;;;;;;;197.73;190.60;;;;;;;;;;4952362;29;20064;-80
2021/08/21 06:36:06;;;;;;;210.60;203.00;;;;;;;;;;4951178;29;20043;-79
2021/08/21 06:38:32;;;;;;;145.25;139.68;;;;;;;;;;4937808;29;20039;-79
2021/08/21 06:40:58;;;;;;;156.63;150.70;;;;;;;;;;4935862;29;20040;-78
2021/08/21 06:43:24;;;;;;;133.68;128.88;;;;;;;;;;4965794;28;20580;-79
2021/08/21 06:45:49;;;;;;;98.43;94.60;;;;;;;;;;4955021;28;20023;-78
2021/08/21 06:48:15;;;;;;;125.25;120.05;;;;;;;;;;4951255;28;20099;-79
2021/08/21 06:50:40;;;;;;;86.68;83.25;;;;;;;;;;4953238;29;20086;-79
2021/08/21 06:53:06;;;;;;;101.32;96.82;;;;;;;;;;4929876;28;20039;-80
2021/08/21 06:55:31;;;;;;;40.13;38.55;;;;;;;;;;4938445;28;20181;-81
2021/08/21 06:57:57;;;;;;;205.60;197.88;;;;;;;;;;4953807;28;20055;-80
2021/08/21 07:00:23;;;;;;;261.08;250.30;;;;;;;;;;4938924;28;20046;-81
2021/08/21 07:02:48;;;;;;;169.77;163.05;;;;;;;;;;4953643;28;20449;-81
2021/08/21 07:05:14;;;;;;;119.10;114.63;;;;;;;;;;4935807;29;20039;-81
2021/08/21 07:07:39;;;;;;;92.10;88.25;;;;;;;;;;4950121;28;20032;-81
2021/08/21 07:10:05;;;;;;;115.47;111.25;;;;;;;;;;4966785;28;20038;-80
2021/08/21 07:12:31;;;;;;;53.13;50.78;;;;;;;;;;4954208;28;20114;-81
2021/08/21 07:14:56;;;;;;;55.08;52.90;;;;;;;;;;4937545;29;20114;-80
2021/08/21 07:17:22;;;;;;;68.40;65.95;;;;;;;;;;4951775;28;20054;-80
2021/08/21 07:19:47;;;;;;;20.73;19.52;;;;;;;;;;4945949;28;20039;-80
2021/08/21 07:22:13;;;;;;;11.65;11.02;;;;;;;;;;4944297;29;20069;-80
2021/08/21 07:24:38;;;;;;;64.88;62.55;;;;;;;;;;4938395;29;20150;-80
2021/08/21 07:27:04;;;;;;;46.67;44.75;;;;;;;;;;4954018;28;20046;-80
2021/08/21 07:29:29;;;;;;;38.58;37.08;;;;;;;;;;4935147;28;20054;-80
2021/08/21 07:31:55;;;;;;;48.42;46.45;;;;;;;;;;4934857;28;20407;-80
2021/08/21 07:34:21;;;;;;;45.85;44.15;;;;;;;;;;4953563;28;20035;-80
2021/08/21 07:36:47;;;;;;;39.78;38.22;;;;;;;;;;4937802;28;20047;-80
2021/08/21 07:39:12;;;;;;;11.43;10.90;;;;;;;;;;4937808;29;20114;-80
2021/08/21 07:41:37;;;;;;;27.17;26.05;;;;;;;;;;4953262;28;20097;-80
2021/08/21 07:44:03;;;;;;;17.50;16.67;;;;;;;;;;4949088;28;20051;-80
2021/08/21 07:46:29;;;;;;;10.35;9.85;;;;;;;;;;4953843;28;20031;-80
2021/08/21 07:48:55;;;;;;;19.33;18.50;;;;;;;;;;4927934;28;20046;-80
2021/08/21 07:51:20;;;;;;;14.82;14.02;;;;;;;;;;4934525;29;20040;-80
2021/08/21 07:53:46;;;;;;;13.88;13.15;;;;;;;;;;4934335;29;20082;-80
2021/08/21 07:56:11;;;;;;;13.00;12.30;;;;;;;;;;4918751;29;20103;-80
2021/08/21 07:58:37;;;;;;;11.77;10.73;;;;;;;;;;4934532;28;20066;-81
2021/08/21 08:01:03;;;;;;;12.00;10.90;;;;;;;;;;4931781;29;20079;-80
2021/08/21 08:03:29;;;;;;;9.13;8.27;;;;;;;;;;4953584;29;20066;-80
2021/08/21 08:05:54;;;;;;;6.93;5.32;;;;;;;;;;4952841;29;20043;-81
2021/08/21 08:08:21;;;;;;;13.57;12.60;;;;;;;;;;4950145;28;20494;-81
2021/08/21 08:10:47;;;;;;;4.85;4.20;;;;;;;;;;4960823;28;20421;-81
2021/08/21 08:13:14;;;;;;;4.30;3.90;;;;;;;;;;4938716;28;20572;-81
2021/08/21 08:15:40;;;;;;;15.82;14.93;;;;;;;;;;4934227;29;20119;-80
2021/08/21 08:18:05;;;;;;;8.68;8.10;;;;;;;;;;4909800;29;20046;-81
2021/08/21 08:20:31;;;;;;;2.53;2.28;;;;;;;;;;4937397;29;20509;-81
2021/08/21 08:22:57;;;;;;;6.95;6.55;;;;;;;;;;4953204;28;20038;-80
2021/08/21 08:25:22;;;;;;;8.07;7.65;;;;;;;;;;4952924;28;20047;-81
2021/08/21 08:27:48;;;;;;;2.97;2.75;;;;;;;;;;4952413;28;20039;-80
2021/08/21 08:30:14;;;;;;;6.07;5.78;;;;;;;;;;4937049;29;20387;-80
2021/08/21 08:32:42;;;;;;;3.70;3.40;;;;;;;;;;4936829;28;20058;-81
2021/08/21 08:35:09;;;;;;;6.07;5.55;;;;;;;;;;4938668;28;20097;-80
2021/08/21 08:37:34;;;;;;;5.43;4.90;;;;;;;;;;4935115;29;20087;-80
2021/08/21 08:40:05;;;;;;;6.35;5.95;;;;;;;;;;4936004;28;20066;-81
2021/08/21 08:42:31;;;;;;;4.50;2.55;;;;;;;;;;4941816;28;20090;-80
2021/08/21 08:44:56;;;;;;;4.18;3.80;;;;;;;;;;4942339;28;20098;-80
2021/08/21 08:47:22;;;;;;;4.30;4.00;;;;;;;;;;4943197;29;20057;-80
2021/08/21 08:49:49;;;;;;;2.97;2.78;;;;;;;;;;4926878;29;20043;-79
2021/08/21 08:52:16;;;;;;;3.25;2.17;;;;;;;;;;4944725;28;20417;-78
2021/08/21 08:54:42;;;;;;;4.82;4.00;;;;;;;;;;4940475;29;20035;-79
2021/08/21 08:57:08;;;;;;;3.17;2.65;;;;;;;;;;4926246;28;20213;-79
2021/08/21 08:59:34;;;;;;;3.50;3.20;;;;;;;;;;4920109;29;20039;-80
2021/08/21 09:02:00;;;;;;;2.90;2.70;;;;;;;;;;4913898;29;20055;-79
2021/08/21 09:04:25;;;;;;;3.45;3.00;;;;;;;;;;4933283;29;20482;-80
2021/08/21 09:06:52;;;;;;;2.50;2.17;;;;;;;;;;4930307;28;20039;-80
2021/08/21 09:09:18;;;;;;;4.43;4.10;;;;;;;;;;4949115;28;20821;-80
2021/08/21 09:11:54;;;;;;;5.50;5.05;;;;;;;;;;4948681;28;20039;-81
2021/08/21 09:14:30;;;;;;;3.25;3.00;;;;;;;;;;4952674;28;20043;-81
2021/08/21 09:17:22;;;;;;;4.22;3.83;;;;;;;;;;4925944;29;20035;-81
2021/08/21 09:19:48;;;;;;;6.00;5.63;;;;;;;;;;4926075;29;20433;-80
2021/08/21 09:22:14;;;;;;;3.03;2.10;;;;;;;;;;4942944;28;20038;-80
2021/08/21 09:24:43;;;;;;;5.50;5.07;;;;;;;;;;4967755;28;20043;-80
2021/08/21 09:27:17;;;;;;;4.15;3.78;;;;;;;;;;4916801;29;20040;-80
2021/08/21 09:29:43;;;;;;;4.30;3.83;;;;;;;;;;4960831;28;20059;-80
2021/08/21 09:32:09;;;;;;;4.20;3.90;;;;;;;;;;4939813;29;20086;-81
2021/08/21 09:34:34;;;;;;;3.72;3.40;;;;;;;;;;4956263;28;20486;-81
2021/08/21 09:37:01;;;;;;;3.38;2.33;;;;;;;;;;4955658;28;20035;-80
2021/08/21 09:39:40;;;;;;;2.30;2.10;;;;;;;;;;4924284;28;20458;-81
2021/08/21 09:42:09;;;;;;;5.05;4.25;;;;;;;;;;4924882;28;20074;-81
2021/08/21 09:44:38;;;;;;;2.38;1.77;;;;;;;;;;4940295;28;20031;-81
2021/08/21 09:47:14;;;;;;;3.83;3.63;;;;;;;;;;4938708;28;20050;-81
2021/08/21 09:49:41;;;;;;;3.78;2.97;;;;;;;;;;4967928;28;20066;-81
2021/08/21 09:52:14;;;;;;;2.85;2.65;;;;;;;;;;4939653;28;20031;-80
2021/08/21 09:54:46;;;;;;;2.90;2.67;;;;;;;;;;4957369;28;20038;-81
2021/08/21 09:57:20;;;;;;;3.75;3.45;;;;;;;;;;4955244;28;20121;-80
2021/08/21 09:59:45;;;;;;;5.53;5.22;;;;;;;;;;4939060;28;20043;-81
2021/08/21 10:02:12;;;;;;;4.47;4.07;;;;;;;;;;4954967;28;20417;-80
2021/08/21 10:04:38;;;;;;;4.80;4.50;;;;;;;;;;4939234;28;20424;-81
2021/08/21 10:07:05;;;;;;;3.47;3.03;;;;;;;;;;4954871;28;20039;-81
2021/08/21 10:09:32;;;;;;;3.35;3.05;;;;;;;;;;4952031;28;20067;-81
2021/08/21 10:11:57;;;;;;;1.92;1.23;;;;;;;;;;4936190;29;20038;-81
2021/08/21 10:14:24;;;;;;;2.83;1.90;;;;;;;;;;4955056;28;20118;-81
2021/08/21 10:16:50;;;;;;;2.92;1.98;;;;;;;;;;4939279;28;20071;-80
2021/08/21 10:19:17;;;;;;;5.50;5.03;;;;;;;;;;4938955;29;20134;-80
2021/08/21 10:21:50;;;;;;;3.58;1.85;;;;;;;;;;4955341;28;20038;-79
2021/08/21 10:24:29;;;;;;;2.80;2.30;;;;;;;;;;4954232;28;20039;-80
2021/08/21 10:27:02;;;;;;;1.73;1.17;;;;;;;;;;4954067;28;20536;-79
2021/08/21 10:29:27;;;;;;;2.13;1.40;;;;;;;;;;4955180;28;20537;-80
2021/08/21 10:31:53;;;;;;;2.15;1.52;;;;;;;;;;4954998;28;20062;-80
2021/08/21 10:34:18;;;;;;;1.90;1.55;;;;;;;;;;4954813;28;20043;-81
2021/08/21 10:36:51;;;;;;;3.10;1.10;;;;;;;;;;4954399;28;20039;-80
2021/08/21 10:39:17;;;;;;;2.90;1.42;;;;;;;;;;4955137;28;20598;-80
2021/08/21 10:41:43;;;;;;;2.53;2.33;;;;;;;;;;4954480;28;20074;-79
2021/08/21 10:44:08;;;;;;;2.28;1.33;;;;;;;;;;4939275;28;20039;-80
2021/08/21 10:46:34;;;;;;;1.95;1.40;;;;;;;;;;4934854;29;20043;-78
2021/08/21 10:49:03;;;;;;;3.42;1.33;;;;;;;;;;4966967;28;21347;-78
2021/08/21 10:51:37;;;;;;;3.78;1.30;;;;;;;;;;4939506;29;20075;-78
2021/08/21 10:54:24;;;;;;;2.15;1.20;;;;;;;;;;4955154;28;20054;-79
2021/08/21 10:56:50;;;;;;;2.53;1.13;;;;;;;;;;4970364;28;20047;-79
2021/08/21 10:59:40;;;;;;;1.80;1.23;;;;;;;;;;4954573;28;20208;-79
2021/08/21 11:02:20;;;;;;;2.20;1.30;;;;;;;;;;4957235;28;20043;-78
2021/08/21 11:04:46;;;;;;;3.92;1.55;;;;;;;;;;4970382;28;20043;-83
2021/08/21 11:07:39;;;;;;;2.22;1.27;;;;;;;;;;4938582;28;20046;-81
2021/08/21 11:10:18;;;;;;;4.53;1.45;;;;;;;;;;4950392;28;20043;-81
2021/08/21 11:12:45;;;;;;;1.95;1.23;;;;;;;;;;4935394;28;20043;-80
2021/08/21 11:15:22;;;;;;;1.63;1.25;;;;;;;;;;4936156;29;20410;-80
2021/08/21 11:17:48;;;;;;;3.65;1.45;;;;;;;;;;4953464;28;20039;-80
2021/08/21 11:20:35;;;;;;;2.88;1.75;;;;;;;;;;4937618;28;20050;-80
2021/08/21 11:23:07;;;;;;;3.30;1.45;;;;;;;;;;4938343;28;20059;-79
2021/08/21 11:25:50;;;;;;;3.00;1.60;;;;;;;;;;4952806;28;20410;-80
2021/08/21 11:28:21;;;;;;;10.50;7.60;;;;;;;;;;4936946;28;20071;-79
2021/08/21 11:31:12;;;;;;;12.23;8.75;;;;;;;;;;4950785;28;20039;-79
2021/08/21 11:33:41;;;;;;;8.38;5.88;;;;;;;;;;4941889;28;20043;-80
2021/08/21 11:36:07;;;;;;;6.78;4.05;;;;;;;;;;4937030;29;20032;-80
2021/08/21 11:38:34;;;;;;;4.13;2.90;;;;;;;;;;4937964;28;20039;-80
2021/08/21 11:41:01;;;;;;;4.35;3.08;;;;;;;;;;4937524;28;20038;-80
2021/08/21 11:43:28;;;;;;;4.18;1.92;;;;;;;;;;4937503;28;20045;-80
2021/08/21 11:45:54;;;;;;;3.35;1.90;;;;;;;;;;4953646;28;20855;-80
2021/08/21 11:48:20;;;;;;;3.75;1.85;;;;;;;;;;4942035;28;20090;-80
2021/08/21 11:50:47;;;;;;;3.83;2.15;;;;;;;;;;4902831;29;20035;-80
2021/08/21 11:53:16;;;;;;;3.88;1.20;;;;;;;;;;4918210;29;20071;-80
2021/08/21 11:55:41;;;;;;;2.80;1.50;;;;;;;;;;4903016;29;20036;-80
2021/08/21 11:58:07;;;;;;;2.75;1.67;;;;;;;;;;4918324;29;20395;-80
2021/08/21 12:00:34;;;;;;;2.22;1.52;;;;;;;;;;4914997;28;20174;-80
2021/08/21 12:03:05;;;;;;;2.38;1.30;;;;;;;;;;4953744;28;20039;-80
2021/08/21 12:05:39;;;;;;;2.85;1.45;;;;;;;;;;4935067;29;20039;-80
2021/08/21 12:08:17;;;;;;;2.10;1.20;;;;;;;;;;4953870;28;20039;-80
2021/08/21 12:10:55;;;;;;;6.90;1.90;;;;;;;;;;4952438;28;20189;-81
2021/08/21 12:13:35;;;;;;;4.53;1.50;;;;;;;;;;4954447;28;20042;-80
2021/08/21 12:16:14;;;;;;;4.20;1.48;;;;;;;;;;4937480;28;20038;-81
2021/08/21 12:18:41;;;;;;;3.08;1.52;;;;;;;;;;4952364;28;20039;-81
2021/08/21 12:21:07;;;;;;;2.55;1.30;;;;;;;;;;4936203;28;20086;-80
2021/08/21 12:23:34;;;;;;;2.38;1.58;;;;;;;;;;4937179;29;20040;-81
2021/08/21 12:26:00;;;;;;;4.38;1.60;;;;;;;;;;4952738;28;20043;-80
2021/08/21 12:28:43;;;;;;;2.85;1.42;;;;;;;;;;4952804;28;20047;-81
2021/08/21 12:31:12;;;;;;;3.22;1.85;;;;;;;;;;4932634;29;20035;-81
2021/08/21 12:33:54;;;;;;;3.72;1.40;;;;;;;;;;4931900;28;20051;-81
2021/08/21 12:36:21;;;;;;;3.95;1.63;;;;;;;;;;4947690;28;20042;-81
2021/08/21 12:39:06;;;;;;;1.98;1.17;;;;;;;;;;4949771;29;20040;-81
2021/08/21 12:41:33;;;;;;;5.68;1.42;;;;;;;;;;4949615;29;20034;-81
2021/08/21 12:44:16;;;;;;;3.33;1.20;;;;;;;;;;4936440;28;20061;-82
2021/08/21 12:46:54;;;;;;;2.97;1.55;;;;;;;;;;4953717;28;20027;-82
2021/08/21 12:49:29;;;;;;;2.38;1.20;;;;;;;;;;4917516;29;20044;-81
2021/08/21 12:51:57;;;;;;;3.60;1.45;;;;;;;;;;4949275;28;20031;-81
2021/08/21 12:54:30;;;;;;;4.50;1.33;;;;;;;;;;4933080;29;20050;-81
2021/08/21 12:57:09;;;;;;;2.28;1.30;;;;;;;;;;4917582;29;20090;-81
2021/08/21 12:59:34;;;;;;;2.60;1.40;;;;;;;;;;4930861;29;20043;-80
2021/08/21 13:02:10;;;;;;;4.78;1.58;;;;;;;;;;4949723;29;20383;-80
2021/08/21 13:04:36;;;;;;;3.53;1.08;;;;;;;;;;4917255;29;20035;-80
2021/08/21 13:07:03;;;;;;;2.78;1.35;;;;;;;;;;4917318;29;20058;-80
2021/08/21 13:09:29;;;;;;;3.95;1.52;;;;;;;;;;4935084;29;20046;-80
2021/08/21 13:11:55;;;;;;;1.92;1.20;;;;;;;;;;4936667;29;20035;-80
2021/08/21 13:14:21;;;;;;;3.67;1.00;;;;;;;;;;4936617;29;20086;-80
2021/08/21 13:16:46;;;;;;;3.45;1.38;;;;;;;;;;4952182;28;20044;-80
2021/08/21 13:19:13;;;;;;;4.70;1.30;;;;;;;;;;4936070;28;20387;-80
2021/08/21 13:21:39;;;;;;;2.95;1.02;;;;;;;;;;4936448;28;20466;-80
2021/08/21 13:24:04;;;;;;;4.22;1.25;;;;;;;;;;4936329;28;20035;-80
2021/08/21 13:26:34;;;;;;;2.33;1.45;;;;;;;;;;4950576;28;20031;-81
2021/08/21 13:29:00;;;;;;;2.75;1.05;;;;;;;;;;4920858;28;20042;-80
2021/08/21 13:31:25;;;;;;;1.67;1.10;;;;;;;;;;4920467;29;20031;-81
2021/08/21 13:33:51;;;;;;;3.13;1.40;;;;;;;;;;4904939;29;20039;-80
2021/08/21 13:36:16;;;;;;;3.40;1.73;;;;;;;;;;4904479;29;20035;-80
2021/08/21 13:38:42;;;;;;;2.20;1.40;;;;;;;;;;4905124;29;20035;-81
2021/08/21 13:41:07;;;;;;;2.22;1.30;;;;;;;;;;4904840;29;20059;-80
2021/08/21 13:43:33;;;;;;;1.92;1.20;;;;;;;;;;4920262;29;20413;-80
2021/08/21 13:45:58;;;;;;;2.33;1.20;;;;;;;;;;4952209;28;20047;-80
2021/08/21 13:48:24;;;;;;;3.25;1.20;;;;;;;;;;4932772;28;20035;-80
2021/08/21 13:50:49;;;;;;;2.40;1.38;;;;;;;;;;4916965;29;20039;-80
2021/08/21 13:53:15;;;;;;;2.60;1.17;;;;;;;;;;4917124;29;20068;-80
2021/08/21 13:55:41;;;;;;;2.92;1.33;;;;;;;;;;4948596;28;20067;-80
2021/08/21 13:58:06;;;;;;;2.22;1.20;;;;;;;;;;4965217;28;20048;-80
2021/08/21 14:00:32;;;;;;;2.05;1.17;;;;;;;;;;4927428;28;20039;-80
2021/08/21 14:02:57;;;;;;;2.13;1.30;;;;;;;;;;4933077;29;20052;-81
2021/08/21 14:05:23;;;;;;;1.88;1.15;;;;;;;;;;4932375;29;20054;-80
2021/08/21 14:07:48;;;;;;;2.05;1.30;;;;;;;;;;4937307;29;20061;-80
2021/08/21 14:10:14;;;;;;;2.60;1.23;;;;;;;;;;4935822;28;20498;-80
2021/08/21 14:12:40;;;;;;;2.83;1.15;;;;;;;;;;4936329;28;20031;-80
2021/08/21 14:15:07;;;;;;;1.95;1.10;;;;;;;;;;4936131;28;20035;-80
2021/08/21 14:17:33;;;;;;;2.13;1.00;;;;;;;;;;4954651;28;20494;-80
2021/08/21 14:20:00;;;;;;;2.50;1.50;;;;;;;;;;4939498;28;20039;-80